Time;durP1;ratioP1;P1;durP2;ratioP2;P2;SDS_P1;SDS_P2;PMS_P1;PMS_P2;Temp;Humidity;BMP_temperature;BMP_pressure;BME280_temperature;BME280_humidity;BME280_pressure;Samples;Min_cycle;Max_cycle;Signal;HPM_P1;HPM_P2
2022/01/05 00:02:10;;;;;;;10.88;2.30;;;1.90;99.90;;;;;;5129464;27;19923;-82
2022/01/05 00:04:35;;;;;;;11.23;2.30;;;0.80;99.90;;;;;;5128809;27;20046;-82
2022/01/05 00:07:02;;;;;;;9.95;2.20;;;1.10;99.90;;;;;;5125204;27;20047;-82
2022/01/05 00:09:29;;;;;;;13.65;2.35;;;0.70;99.90;;;;;;5112305;27;20062;-82
2022/01/05 00:11:55;;;;;;;;;;;0.70;99.90;;;;;;5106044;27;20057;-84
2022/01/05 00:14:21;;;;;;;8.73;2.00;;;0.70;99.90;;;;;;5124866;27;19927;-86
2022/01/05 00:16:46;;;;;;;11.30;2.45;;;1.20;99.90;;;;;;5106955;27;20122;-81
2022/01/05 00:19:12;;;;;;;11.10;2.22;;;0.70;99.90;;;;;;5094619;27;20047;-82
2022/01/05 00:21:40;;;;;;;;;;;0.70;99.90;;;;;;5129610;27;20099;-82
2022/01/05 00:24:06;;;;;;;;;;;0.70;99.90;;;;;;5132339;27;19942;-85
2022/01/05 00:26:32;;;;;;;10.35;2.63;;;0.70;99.90;;;;;;5114708;27;20439;-81
2022/01/05 00:28:58;;;;;;;13.18;1.92;;;0.80;99.90;;;;;;5126908;27;20054;-81
2022/01/05 00:31:24;;;;;;;5.47;2.33;;;0.80;99.90;;;;;;5127150;27;20467;-84
2022/01/05 00:33:50;;;;;;;6.38;1.90;;;0.80;99.90;;;;;;5122666;27;20126;-82
2022/01/05 00:36:17;;;;;;;8.05;1.65;;;0.90;99.90;;;;;;5129321;27;20039;-83
2022/01/05 00:38:43;;;;;;;12.50;2.17;;;0.90;99.90;;;;;;5131095;27;20062;-81
2022/01/05 00:41:09;;;;;;;12.98;1.90;;;1.50;99.90;;;;;;5130416;27;20050;-81
2022/01/05 00:43:35;;;;;;;6.60;1.73;;;1.10;99.90;;;;;;5112978;27;20090;-82
2022/01/05 00:46:00;;;;;;;8.02;2.10;;;1.20;99.90;;;;;;5132424;27;20047;-81
2022/01/05 00:48:29;;;;;;;5.13;1.92;;;1.20;99.90;;;;;;5097246;27;20046;-83
2022/01/05 00:50:58;;;;;;;10.60;1.70;;;1.30;99.90;;;;;;5132320;27;20056;-82
2022/01/05 00:53:24;;;;;;;4.90;2.25;;;1.40;99.90;;;;;;5147437;27;20050;-86
2022/01/05 00:55:50;;;;;;;7.43;1.70;;;1.40;99.90;;;;;;5147689;27;20047;-81
2022/01/05 00:58:16;;;;;;;9.70;1.67;;;1.50;99.90;;;;;;5132251;27;20103;-81
2022/01/05 01:00:41;;;;;;;9.02;1.92;;;1.40;99.90;;;;;;5131968;27;20058;-81
2022/01/05 01:03:07;;;;;;;7.53;1.70;;;2.30;99.90;;;;;;5133010;27;20043;-81
2022/01/05 01:05:33;;;;;;;9.65;1.88;;;1.40;99.90;;;;;;5132703;27;20043;-81
2022/01/05 01:07:58;;;;;;;7.25;2.25;;;2.00;99.90;;;;;;5115640;27;20549;-80
2022/01/05 01:10:24;;;;;;;16.70;2.10;;;1.80;99.90;;;;;;5132427;27;20502;-85
2022/01/05 01:12:50;;;;;;;10.65;1.83;;;1.30;99.90;;;;;;5115458;27;20047;-81
2022/01/05 01:15:16;;;;;;;10.05;1.80;;;1.30;99.90;;;;;;5115431;28;20111;-82
2022/01/05 01:17:42;;;;;;;7.53;1.35;;;1.30;99.90;;;;;;5094630;28;20129;-81
2022/01/05 01:20:08;;;;;;;10.75;1.67;;;1.50;99.90;;;;;;5108431;27;20047;-81
2022/01/05 01:22:35;;;;;;;9.77;2.42;;;1.30;99.90;;;;;;5132186;27;20054;-81
2022/01/05 01:25:01;;;;;;;7.90;2.13;;;1.20;99.90;;;;;;5132500;27;20118;-81
2022/01/05 01:27:27;;;;;;;13.30;1.92;;;1.10;99.90;;;;;;5111190;28;20127;-84
2022/01/05 01:29:52;;;;;;;9.32;1.80;;;1.10;99.90;;;;;;5110951;28;20068;-82
2022/01/05 01:32:18;;;;;;;17.10;3.15;;;1.10;99.90;;;;;;5078090;28;20055;-81
2022/01/05 01:34:44;;;;;;;8.88;1.73;;;1.90;99.90;;;;;;5110231;28;20636;-81
2022/01/05 01:37:09;;;;;;;7.78;1.75;;;1.10;99.90;;;;;;5111577;28;20082;-81
2022/01/05 01:39:35;;;;;;;6.88;2.00;;;1.10;99.90;;;;;;5111492;28;20052;-81
2022/01/05 01:42:01;;;;;;;7.22;1.85;;;1.10;99.90;;;;;;5111898;28;20040;-82
2022/01/05 01:44:26;;;;;;;7.10;1.83;;;1.10;99.90;;;;;;5110831;28;20543;-86
2022/01/05 01:46:53;;;;;;;12.45;2.35;;;1.10;99.90;;;;;;5094782;28;20392;-80
2022/01/05 01:49:19;;;;;;;9.93;2.75;;;1.10;99.90;;;;;;5111577;28;20079;-81
2022/01/05 01:51:45;;;;;;;10.60;2.03;;;1.10;99.90;;;;;;5094731;28;20106;-81
2022/01/05 01:54:11;;;;;;;10.63;1.70;;;1.10;99.90;;;;;;5111724;28;20054;-81
2022/01/05 01:56:37;;;;;;;;;;;1.40;99.90;;;;;;5094653;28;20079;-81
2022/01/05 01:59:03;;;;;;;13.65;1.90;;;1.20;99.90;;;;;;5110886;28;19919;-80
2022/01/05 02:01:29;;;;;;;8.00;1.95;;;2.00;99.90;;;;;;5111272;28;20395;-81
2022/01/05 02:03:55;;;;;;;8.95;1.95;;;1.20;99.90;;;;;;5111786;28;20044;-81
2022/01/05 02:06:21;;;;;;;10.63;2.50;;;2.00;99.90;;;;;;5111625;28;20396;-81
2022/01/05 02:08:47;;;;;;;10.57;1.65;;;1.70;99.90;;;;;;5094097;28;20054;-81
2022/01/05 02:11:13;;;;;;;14.02;2.28;;;1.30;99.90;;;;;;5096899;28;20046;-80
2022/01/05 02:13:40;;;;;;;14.10;1.50;;;1.40;99.90;;;;;;5097667;28;20044;-80
2022/01/05 02:16:06;;;;;;;8.30;2.15;;;1.40;99.90;;;;;;5098735;28;20051;-80
2022/01/05 02:21:09;;;;;;;6.20;1.55;;;1.40;99.90;;;;;;5115360;28;20132;-80
2022/01/05 02:23:36;;;;;;;5.50;2.33;;;1.40;99.90;;;;;;5115219;28;20146;-80
2022/01/05 02:26:03;;;;;;;11.25;1.90;;;1.70;99.90;;;;;;5115464;28;20130;-80
2022/01/05 02:28:29;;;;;;;8.85;1.73;;;1.50;99.90;;;;;;5115309;27;20043;-86
2022/01/05 02:30:56;;;;;;;7.95;2.10;;;1.30;99.90;;;;;;5101383;27;20078;-80
2022/01/05 02:33:22;;;;;;;7.20;2.10;;;1.40;99.90;;;;;;5130853;27;20513;-80
2022/01/05 02:35:48;;;;;;;6.50;1.63;;;1.40;99.90;;;;;;5142160;27;20185;-81
2022/01/05 02:38:22;;;;;;;10.27;1.80;;;1.40;99.90;;;;;;5142608;27;20130;-80
2022/01/05 02:40:48;;;;;;;12.55;3.35;;;1.40;99.90;;;;;;5142118;27;20149;-84
2022/01/05 02:43:14;;;;;;;13.65;2.88;;;1.40;99.90;;;;;;5129366;27;20107;-81
2022/01/05 02:45:40;;;;;;;12.73;2.17;;;2.40;99.90;;;;;;5117894;27;20051;-80
2022/01/05 02:48:06;;;;;;;11.48;1.98;;;1.40;99.90;;;;;;5101523;27;20051;-80
2022/01/05 02:50:31;;;;;;;15.38;2.05;;;1.40;99.90;;;;;;5118181;27;20050;-86
2022/01/05 02:52:57;;;;;;;13.45;2.20;;;1.40;99.90;;;;;;5118260;27;20047;-80
2022/01/05 02:55:23;;;;;;;11.13;2.00;;;1.90;99.90;;;;;;5117811;27;20051;-80
2022/01/05 02:57:49;;;;;;;11.60;1.80;;;1.40;99.90;;;;;;5118081;27;20058;-80
2022/01/05 03:00:16;;;;;;;14.15;1.85;;;1.40;99.90;;;;;;5100763;27;20532;-80
2022/01/05 03:02:45;;;;;;;14.05;2.30;;;1.40;99.90;;;;;;5100575;27;20039;-80
2022/01/05 03:05:11;;;;;;;15.18;2.17;;;1.40;99.90;;;;;;5118258;27;20547;-81
2022/01/05 03:07:40;;;;;;;11.30;2.42;;;1.40;99.90;;;;;;5117208;27;20130;-80
2022/01/05 03:10:07;;;;;;;5.82;1.60;;;1.40;99.90;;;;;;5101035;27;20039;-80
2022/01/05 03:12:33;;;;;;;11.23;2.22;;;1.40;99.90;;;;;;5143583;27;20042;-88
2022/01/05 03:14:59;;;;;;;11.10;1.83;;;1.40;99.90;;;;;;5141762;27;20073;-80
2022/01/05 03:17:25;;;;;;;7.85;1.77;;;1.40;99.90;;;;;;5121308;27;20487;-81
2022/01/05 03:19:50;;;;;;;7.22;1.83;;;1.40;99.90;;;;;;5138002;27;20070;-81
2022/01/05 03:22:16;;;;;;;10.35;1.58;;;1.30;99.90;;;;;;5138126;27;20050;-83
2022/01/05 03:24:42;;;;;;;5.47;1.70;;;1.30;99.90;;;;;;5120425;27;20039;-81
2022/01/05 03:27:07;;;;;;;5.40;2.03;;;1.30;99.90;;;;;;5138240;27;20085;-80
2022/01/05 03:29:33;;;;;;;8.27;1.88;;;1.30;99.90;;;;;;5136901;27;20415;-84
2022/01/05 03:31:59;;;;;;;7.57;1.50;;;1.30;99.90;;;;;;5137201;27;20051;-80
2022/01/05 03:34:26;;;;;;;14.43;1.90;;;1.30;99.90;;;;;;5135823;27;20039;-80
2022/01/05 03:36:53;;;;;;;9.45;2.53;;;1.40;99.90;;;;;;5137469;27;20066;-81
2022/01/05 03:39:19;;;;;;;10.10;1.60;;;1.30;99.90;;;;;;5120691;27;20053;-80
2022/01/05 03:41:44;;;;;;;8.18;2.33;;;1.30;99.90;;;;;;5103406;27;20129;-81
2022/01/05 03:44:11;;;;;;;6.28;2.25;;;1.30;99.90;;;;;;5137346;27;20475;-80
2022/01/05 03:46:36;;;;;;;;;;;1.30;99.90;;;;;;5138110;27;20137;-85
2022/01/05 03:49:02;;;;;;;9.57;1.90;;;1.30;99.90;;;;;;5137044;27;20358;-80
2022/01/05 03:51:28;;;;;;;4.95;1.65;;;1.30;99.90;;;;;;5137531;27;20049;-80
2022/01/05 03:53:53;;;;;;;12.13;1.65;;;1.90;99.90;;;;;;5119747;27;20479;-80
2022/01/05 03:56:19;;;;;;;12.57;1.73;;;1.40;99.90;;;;;;5103507;27;20042;-81
2022/01/05 03:58:45;;;;;;;9.13;1.75;;;1.30;99.90;;;;;;5137431;27;20053;-81
2022/01/05 04:01:11;;;;;;;6.90;1.67;;;1.30;99.90;;;;;;5119891;27;20495;-80
2022/01/05 04:03:37;;;;;;;6.95;1.88;;;1.30;99.90;;;;;;5119938;27;20051;-82
2022/01/05 04:06:02;;;;;;;5.65;1.30;;;1.30;99.90;;;;;;5119981;27;20092;-80
2022/01/05 04:08:28;;;;;;;11.88;1.77;;;1.30;99.90;;;;;;5103252;27;20043;-80
2022/01/05 04:10:54;;;;;;;5.40;1.45;;;1.30;99.90;;;;;;5137050;27;20055;-81
2022/01/05 04:13:20;;;;;;;8.52;2.05;;;1.20;99.90;;;;;;5137423;27;20043;-81
2022/01/05 04:15:45;;;;;;;7.50;1.80;;;1.20;99.90;;;;;;5136368;27;20099;-81
2022/01/05 04:18:11;;;;;;;9.75;1.63;;;1.40;99.90;;;;;;5137384;27;20049;-80
2022/01/05 04:20:37;;;;;;;10.52;2.60;;;1.20;99.90;;;;;;5136911;27;20045;-81
2022/01/05 04:23:03;;;;;;;9.88;1.70;;;1.20;99.90;;;;;;5117643;27;20050;-81
2022/01/05 04:25:30;;;;;;;7.32;1.35;;;1.70;99.90;;;;;;5136877;27;20097;-80
2022/01/05 04:27:56;;;;;;;15.80;1.92;;;1.30;99.90;;;;;;5136429;27;20050;-80
2022/01/05 04:30:22;;;;;;;8.65;1.92;;;2.10;99.90;;;;;;5136356;27;20051;-81
2022/01/05 04:32:47;;;;;;;9.15;1.80;;;1.30;99.90;;;;;;5136252;27;20134;-80
2022/01/05 04:35:14;;;;;;;11.15;1.60;;;2.10;99.90;;;;;;5119713;27;20054;-80
2022/01/05 04:37:43;;;;;;;9.40;1.88;;;1.40;99.90;;;;;;5119935;27;20043;-80
2022/01/05 04:40:10;;;;;;;13.52;2.25;;;1.30;99.90;;;;;;5136722;27;20095;-80
2022/01/05 04:42:36;;;;;;;6.68;1.60;;;1.30;99.90;;;;;;5155024;27;20057;-81
2022/01/05 04:45:03;;;;;;;10.32;2.45;;;1.20;99.90;;;;;;5136027;27;20491;-80
2022/01/05 04:47:28;;;;;;;11.65;1.95;;;1.30;99.90;;;;;;5134580;27;20043;-80
2022/01/05 04:49:54;;;;;;;13.70;3.38;;;1.30;99.90;;;;;;5101892;27;20103;-81
2022/01/05 04:52:20;;;;;;;11.25;2.72;;;2.10;99.90;;;;;;5119729;27;20081;-80
2022/01/05 04:54:46;;;;;;;7.63;1.90;;;1.40;99.90;;;;;;5110551;27;20470;-84
2022/01/05 04:57:14;;;;;;;12.60;2.30;;;1.40;99.90;;;;;;5140259;27;20050;-80
2022/01/05 04:59:40;;;;;;;17.40;2.50;;;1.50;99.90;;;;;;5156846;27;20060;-80
2022/01/05 05:02:05;;;;;;;10.57;2.92;;;2.20;99.90;;;;;;5156908;27;20042;-81
2022/01/05 05:04:31;;;;;;;16.08;2.50;;;1.50;99.90;;;;;;5157026;27;20042;-80
2022/01/05 05:06:57;;;;;;;11.20;1.98;;;1.60;99.90;;;;;;5156870;27;20092;-80
2022/01/05 05:09:23;;;;;;;12.18;2.45;;;2.40;99.90;;;;;;5153620;27;20145;-80
2022/01/05 05:11:50;;;;;;;9.93;1.58;;;1.60;99.90;;;;;;5118502;27;20039;-81
2022/01/05 05:14:15;;;;;;;11.85;2.08;;;1.50;99.90;;;;;;5134719;27;20054;-80
2022/01/05 05:16:41;;;;;;;9.32;2.00;;;1.50;99.90;;;;;;5112402;27;20130;-80
2022/01/05 05:19:07;;;;;;;8.55;2.35;;;1.50;99.90;;;;;;5115203;27;20058;-80
2022/01/05 05:21:32;;;;;;;13.00;1.77;;;1.50;99.90;;;;;;5115658;27;20039;-80
2022/01/05 05:23:58;;;;;;;12.95;2.50;;;1.60;99.90;;;;;;5115234;28;20047;-80
2022/01/05 05:26:24;;;;;;;9.25;2.08;;;2.00;99.90;;;;;;5098747;28;20047;-81
2022/01/05 05:28:50;;;;;;;11.65;2.00;;;1.60;99.90;;;;;;5114379;28;20066;-82
2022/01/05 05:31:15;;;;;;;8.68;2.40;;;1.60;99.90;;;;;;5115434;28;20483;-81
2022/01/05 05:33:41;;;;;;;11.40;2.58;;;2.10;99.90;;;;;;5098589;28;20433;-80
2022/01/05 05:36:07;;;;;;;13.70;2.53;;;1.70;99.90;;;;;;5098280;28;20050;-80
2022/01/05 05:38:33;;;;;;;13.77;2.28;;;1.80;99.90;;;;;;5115340;28;20151;-80
2022/01/05 05:40:59;;;;;;;;;;;1.80;99.90;;;;;;5129576;27;20187;-80
2022/01/05 05:43:25;;;;;;;8.55;1.80;;;1.90;99.90;;;;;;5135841;27;19967;-83
2022/01/05 05:45:50;;;;;;;8.02;1.90;;;2.00;99.90;;;;;;5121595;27;20049;-85
2022/01/05 05:48:16;;;;;;;13.38;2.45;;;2.00;99.90;;;;;;5137579;27;20491;-80
2022/01/05 05:50:42;;;;;;;12.00;2.28;;;2.00;99.90;;;;;;5102650;27;20051;-81
2022/01/05 05:53:08;;;;;;;12.23;3.65;;;2.10;99.90;;;;;;5119306;27;20489;-80
2022/01/05 05:55:34;;;;;;;15.43;2.45;;;2.00;99.90;;;;;;5102340;27;20055;-80
2022/01/05 05:58:00;;;;;;;11.15;1.88;;;2.50;99.90;;;;;;5118925;27;20039;-80
2022/01/05 06:00:26;;;;;;;;;;;2.00;99.90;;;;;;5119368;27;20031;-80
2022/01/05 06:02:52;;;;;;;15.80;2.55;;;1.90;99.90;;;;;;5133772;27;20009;-85
2022/01/05 06:05:18;;;;;;;14.45;2.50;;;1.90;99.90;;;;;;5126333;27;20095;-80
2022/01/05 06:07:43;;;;;;;13.23;2.40;;;1.90;99.90;;;;;;5160765;27;20046;-80
2022/01/05 06:10:10;;;;;;;13.40;2.55;;;1.90;99.90;;;;;;5142428;27;20030;-80
2022/01/05 06:12:35;;;;;;;13.82;2.22;;;2.00;99.90;;;;;;5160181;27;20765;-81
2022/01/05 06:15:01;;;;;;;15.77;2.53;;;2.00;99.90;;;;;;5142577;27;20049;-81
2022/01/05 06:17:27;;;;;;;16.52;2.42;;;2.00;99.90;;;;;;5160510;27;20050;-81
2022/01/05 06:19:53;;;;;;;11.43;2.03;;;2.10;99.90;;;;;;5160512;27;20038;-82
2022/01/05 06:22:18;;;;;;;22.63;3.67;;;2.10;99.90;;;;;;5126199;27;20044;-80
2022/01/05 06:24:44;;;;;;;7.18;2.20;;;2.10;99.90;;;;;;5139514;27;20399;-80
2022/01/05 06:27:11;;;;;;;21.95;3.60;;;2.20;99.90;;;;;;5139209;27;20095;-80
2022/01/05 06:29:38;;;;;;;10.80;2.47;;;2.20;99.90;;;;;;5107045;28;20139;-81
2022/01/05 06:32:06;;;;;;;16.17;2.83;;;2.30;99.90;;;;;;5114999;28;20051;-80
2022/01/05 06:34:31;;;;;;;15.95;2.83;;;2.30;99.90;;;;;;5115536;28;20050;-81
2022/01/05 06:36:57;;;;;;;7.68;2.33;;;2.40;99.90;;;;;;5114954;28;20036;-86
2022/01/05 06:39:23;;;;;;;17.25;2.85;;;2.50;99.90;;;;;;5098154;28;20044;-82
2022/01/05 06:41:48;;;;;;;11.93;2.50;;;3.00;99.90;;;;;;5098207;28;20129;-80
2022/01/05 06:44:14;;;;;;;11.13;2.30;;;2.60;99.90;;;;;;5097332;28;20073;-80
2022/01/05 06:46:40;;;;;;;8.57;2.25;;;2.60;99.90;;;;;;5101581;27;20047;-81
2022/01/05 06:49:05;;;;;;;9.55;2.40;;;2.70;99.90;;;;;;5134808;27;20051;-80
2022/01/05 06:51:31;;;;;;;14.38;2.40;;;2.70;99.90;;;;;;5118320;27;20050;-80
2022/01/05 06:53:57;;;;;;;16.10;2.40;;;2.70;99.90;;;;;;5118205;27;20400;-84
2022/01/05 06:56:22;;;;;;;13.05;2.22;;;2.80;99.90;;;;;;5134534;27;20046;-80
2022/01/05 06:58:48;;;;;;;16.83;2.70;;;3.50;99.90;;;;;;5117888;27;20043;-80
2022/01/05 07:01:14;;;;;;;11.95;2.15;;;2.80;99.90;;;;;;5117979;27;20051;-82
2022/01/05 07:03:40;;;;;;;13.40;2.28;;;2.90;99.90;;;;;;5132414;27;20043;-82
2022/01/05 07:06:06;;;;;;;8.73;1.98;;;2.90;99.90;;;;;;5080228;28;20066;-82
2022/01/05 07:08:32;;;;;;;17.20;2.58;;;2.90;99.90;;;;;;5093627;28;20164;-82
2022/01/05 07:10:57;;;;;;;12.40;2.45;;;2.90;99.90;;;;;;5093886;28;20047;-82
2022/01/05 07:13:24;;;;;;;9.38;2.20;;;2.90;99.90;;;;;;5093449;28;20086;-86
2022/01/05 07:15:50;;;;;;;11.32;2.05;;;3.00;99.90;;;;;;5076881;28;20570;-83
2022/01/05 07:18:16;;;;;;;;;;;3.00;99.90;;;;;;5094166;28;20044;-83
2022/01/05 07:20:42;;;;;;;9.18;2.33;;;3.00;99.90;;;;;;5105311;27;20383;-83
2022/01/05 07:23:09;;;;;;;11.75;3.08;;;3.00;99.90;;;;;;5134576;27;20086;-82
2022/01/05 07:25:34;;;;;;;9.63;2.17;;;3.10;99.90;;;;;;5134754;27;20051;-82
2022/01/05 07:28:00;;;;;;;8.68;1.85;;;2.80;99.90;;;;;;5079387;28;20052;-81
2022/01/05 07:30:26;;;;;;;8.88;2.00;;;2.80;99.90;;;;;;5113228;27;20103;-83
2022/01/05 07:32:52;;;;;;;6.90;1.80;;;2.70;99.90;;;;;;5100448;27;20456;-81
2022/01/05 07:35:17;;;;;;;5.55;1.40;;;2.80;99.90;;;;;;5135517;27;20039;-82
2022/01/05 07:37:43;;;;;;;4.75;1.33;;;2.60;99.90;;;;;;5104030;27;20034;-79
2022/01/05 07:40:10;;;;;;;6.18;1.90;;;2.60;99.90;;;;;;5134963;27;20043;-80
2022/01/05 07:42:36;;;;;;;8.73;1.63;;;2.60;99.90;;;;;;5106875;27;20106;-79
2022/01/05 07:45:04;;;;;;;9.98;1.90;;;2.50;99.90;;;;;;5137722;27;20535;-81
2022/01/05 07:47:30;;;;;;;8.70;1.70;;;2.30;99.90;;;;;;5139356;27;20046;-80
2022/01/05 07:49:55;;;;;;;8.48;1.75;;;2.20;99.90;;;;;;5137001;27;20468;-82
2022/01/05 07:52:21;;;;;;;7.30;1.95;;;2.80;99.90;;;;;;5099759;27;20130;-88
2022/01/05 07:54:47;;;;;;;10.90;2.13;;;2.00;99.90;;;;;;5099780;27;20049;-84
2022/01/05 07:57:12;;;;;;;6.30;1.90;;;2.60;99.90;;;;;;5121660;27;20129;-82
2022/01/05 07:59:38;;;;;;;15.32;2.58;;;2.00;99.90;;;;;;5122726;27;20047;-80
2022/01/05 08:02:04;;;;;;;7.57;2.03;;;1.90;99.90;;;;;;5140167;27;20125;-82
2022/01/05 08:04:30;;;;;;;13.65;2.90;;;1.80;99.90;;;;;;5120065;27;20046;-83
2022/01/05 08:06:55;;;;;;;11.85;2.88;;;1.80;99.90;;;;;;5137416;27;20467;-81
2022/01/05 08:09:21;;;;;;;14.40;3.58;;;1.70;99.90;;;;;;5118490;27;20054;-82
2022/01/05 08:11:47;;;;;;;12.27;3.35;;;1.70;99.90;;;;;;5102896;27;20045;-83
2022/01/05 08:14:12;;;;;;;11.55;3.20;;;1.70;99.90;;;;;;5119528;27;20100;-81
2022/01/05 08:16:39;;;;;;;11.00;3.47;;;1.70;99.90;;;;;;5136870;27;20391;-83
2022/01/05 08:19:05;;;;;;;13.38;4.00;;;1.70;99.90;;;;;;5138537;27;20051;-83
2022/01/05 08:21:31;;;;;;;17.00;4.60;;;1.90;99.90;;;;;;5099404;27;20043;-84
2022/01/05 08:23:56;;;;;;;18.48;4.70;;;1.80;99.90;;;;;;5133455;27;20391;-84
2022/01/05 08:26:22;;;;;;;20.13;6.05;;;1.90;99.90;;;;;;5098954;27;20074;-84
2022/01/05 08:28:48;;;;;;;19.15;4.25;;;2.00;99.90;;;;;;5127052;27;20097;-84
2022/01/05 08:31:14;;;;;;;25.58;4.97;;;2.10;99.90;;;;;;5120359;27;20082;-83
2022/01/05 08:33:40;;;;;;;21.58;4.55;;;2.20;99.90;;;;;;5116482;27;20047;-83
2022/01/05 08:36:06;;;;;;;20.65;5.25;;;2.30;99.90;;;;;;5116513;27;20139;-83
2022/01/05 08:38:32;;;;;;;23.20;6.13;;;2.30;99.90;;;;;;5115597;27;20047;-84
2022/01/05 08:40:57;;;;;;;;;;;2.50;99.90;;;;;;5116874;27;20049;-81
2022/01/05 08:43:23;;;;;;;23.90;4.35;;;2.70;99.90;;;;;;5135031;27;19923;-84
2022/01/05 08:45:49;;;;;;;24.40;2.90;;;2.90;99.90;;;;;;5136373;27;20080;-82
2022/01/05 08:48:15;;;;;;;10.07;2.28;;;3.10;99.90;;;;;;5136098;27;20042;-84
2022/01/05 08:50:41;;;;;;;14.68;1.77;;;3.70;99.90;;;;;;5119318;27;20050;-81
2022/01/05 08:53:07;;;;;;;14.27;1.83;;;3.40;99.90;;;;;;5136684;27;20042;-81
2022/01/05 08:55:37;;;;;;;;;;;3.80;99.90;;;;;;5119309;27;20054;-82
2022/01/05 08:58:05;;;;;;;10.90;1.45;;;3.60;99.90;;;;;;5136308;27;20378;-81
2022/01/05 09:00:32;;;;;;;5.45;1.50;;;3.70;99.90;;;;;;5091755;27;20132;-86
2022/01/05 09:02:58;;;;;;;10.23;2.08;;;3.70;99.90;;;;;;5080805;27;20043;-85
2022/01/05 09:05:24;;;;;;;10.85;1.50;;;3.70;99.90;;;;;;5111951;27;20085;-85
2022/01/05 09:07:50;;;;;;;12.95;1.60;;;3.70;99.90;;;;;;5114322;27;20047;-86
2022/01/05 09:10:16;;;;;;;14.32;2.40;;;3.80;99.90;;;;;;5089185;27;20118;-87
2022/01/05 09:12:41;;;;;;;9.43;1.77;;;3.90;99.90;;;;;;5131208;27;20043;-85
2022/01/05 09:15:08;;;;;;;13.45;1.73;;;4.30;99.90;;;;;;5112878;27;20487;-85
2022/01/05 09:17:33;;;;;;;9.82;2.20;;;4.00;99.90;;;;;;5133879;27;20126;-85
2022/01/05 09:19:59;;;;;;;10.40;2.15;;;4.60;99.90;;;;;;5129176;27;20134;-84
2022/01/05 09:22:25;;;;;;;14.27;2.72;;;4.40;99.90;;;;;;5100674;27;20053;-84
2022/01/05 09:24:51;;;;;;;15.15;1.80;;;4.20;99.90;;;;;;5134233;27;20047;-89
2022/01/05 09:27:17;;;;;;;;;;;4.30;99.90;;;;;;5117006;27;20046;-85
2022/01/05 09:29:43;;;;;;;14.57;2.40;;;4.80;99.90;;;;;;5114357;27;19930;-87
2022/01/05 09:32:10;;;;;;;25.63;3.45;;;4.40;99.90;;;;;;5142645;27;20051;-85
2022/01/05 09:34:37;;;;;;;15.43;2.05;;;4.50;99.90;;;;;;5120243;27;20448;-86
2022/01/05 09:37:10;;;;;;;21.40;2.90;;;4.70;99.90;;;;;;5120479;27;20038;-86
2022/01/05 09:42:20;;;;;;;16.17;1.85;;;4.70;99.90;;;;;;5139861;27;20491;-86
2022/01/05 09:44:48;;;;;;;10.13;2.17;;;4.60;99.90;;;;;;5119581;27;20145;-85
2022/01/05 09:47:29;;;;;;;9.95;1.77;;;4.60;99.90;;;;;;5143319;27;20488;-87
2022/01/05 09:50:10;;;;;;;10.13;1.98;;;4.60;99.90;;;;;;5113399;28;20046;-85
2022/01/05 09:52:40;;;;;;;8.55;1.75;;;4.70;99.90;;;;;;5096306;28;20134;-83
2022/01/05 09:55:08;;;;;;;15.35;1.95;;;4.90;99.90;;;;;;5099651;27;20043;-84
2022/01/05 09:57:35;;;;;;;14.25;2.03;;;4.70;99.90;;;;;;5090451;27;20043;-82
2022/01/05 10:00:02;;;;;;;16.58;2.25;;;4.70;99.90;;;;;;5109130;27;20043;-84
2022/01/05 10:02:29;;;;;;;10.93;1.80;;;4.80;99.90;;;;;;5097006;28;20438;-86
2022/01/05 10:04:57;;;;;;;14.43;2.10;;;4.70;99.90;;;;;;5095483;28;20406;-85
2022/01/05 10:07:22;;;;;;;14.98;1.70;;;4.70;99.90;;;;;;5112481;28;20479;-85
2022/01/05 10:09:49;;;;;;;11.88;1.98;;;5.10;99.90;;;;;;5078415;28;20039;-85
2022/01/05 10:12:15;;;;;;;20.88;2.30;;;4.70;99.90;;;;;;5130118;28;20590;-86
2022/01/05 10:14:42;;;;;;;;;;;4.90;99.90;;;;;;5130696;27;20043;-86
2022/01/05 10:17:09;;;;;;;17.38;2.08;;;5.30;99.90;;;;;;5144752;27;19923;-85
2022/01/05 10:19:36;;;;;;;19.33;2.22;;;5.10;99.90;;;;;;5133013;27;20065;-81
2022/01/05 10:22:03;;;;;;;16.42;2.38;;;4.90;99.90;;;;;;5111244;27;20113;-81
2022/01/05 10:24:47;;;;;;;19.27;2.78;;;4.90;99.90;;;;;;5113649;27;20081;-82
2022/01/05 10:27:20;;;;;;;17.60;2.83;;;4.90;99.90;;;;;;5133534;27;20131;-84
2022/01/05 10:29:55;;;;;;;16.17;3.40;;;4.90;99.90;;;;;;5098394;27;20131;-83
2022/01/05 10:32:22;;;;;;;14.43;2.88;;;5.00;99.90;;;;;;5136154;27;20368;-83
2022/01/05 10:35:11;;;;;;;31.23;3.58;;;5.20;99.90;;;;;;5121040;27;20086;-83
2022/01/05 10:37:40;;;;;;;19.73;2.85;;;5.20;99.90;;;;;;5152280;27;20103;-83
2022/01/05 10:40:25;;;;;;;28.77;3.55;;;5.50;99.90;;;;;;5137775;27;20082;-84
2022/01/05 10:42:54;;;;;;;22.80;3.17;;;5.30;99.90;;;;;;5120364;27;20572;-83
2022/01/05 10:45:44;;;;;;;19.25;3.05;;;5.40;99.90;;;;;;5120025;27;20145;-82
2022/01/05 10:48:11;;;;;;;15.63;2.78;;;5.50;99.90;;;;;;5137852;27;20051;-83
2022/01/05 10:50:37;;;;;;;16.77;2.30;;;5.60;99.90;;;;;;5119886;27;20046;-82
2022/01/05 10:53:05;;;;;;;17.20;2.42;;;5.70;99.90;;;;;;5137644;27;20046;-82
2022/01/05 10:55:37;;;;;;;15.85;2.85;;;5.70;99.90;;;;;;5130561;27;20046;-82
2022/01/05 10:58:04;;;;;;;19.45;2.83;;;5.80;99.90;;;;;;5118323;27;20043;-82
2022/01/05 11:00:52;;;;;;;20.27;2.45;;;6.00;99.90;;;;;;5125907;27;20065;-82
2022/01/05 11:03:25;;;;;;;17.20;2.30;;;5.90;99.90;;;;;;5119915;27;20475;-81
2022/01/05 11:06:12;;;;;;;19.25;2.88;;;5.90;99.90;;;;;;5128356;27;20046;-81
2022/01/05 11:09:00;;;;;;;14.05;2.25;;;6.00;99.90;;;;;;5101933;27;20038;-82
2022/01/05 11:11:32;;;;;;;16.00;2.33;;;6.00;99.90;;;;;;5119846;27;20417;-84
2022/01/05 11:13:57;;;;;;;15.02;2.92;;;6.00;99.90;;;;;;5135668;27;20042;-81
2022/01/05 11:16:28;;;;;;;19.95;2.50;;;5.90;99.90;;;;;;5119502;27;20046;-82
2022/01/05 11:19:14;;;;;;;16.27;2.75;;;5.90;99.90;;;;;;5112043;27;20054;-82
2022/01/05 11:21:53;;;;;;;26.98;3.30;;;6.00;99.90;;;;;;5105323;27;20514;-83
2022/01/05 11:24:20;;;;;;;19.38;2.47;;;6.10;99.90;;;;;;5124999;27;20137;-82
2022/01/05 11:26:45;;;;;;;17.55;3.15;;;6.20;99.90;;;;;;5106341;27;20492;-81
2022/01/05 11:29:12;;;;;;;14.23;2.40;;;6.20;99.90;;;;;;5122766;27;20106;-82
2022/01/05 11:31:38;;;;;;;20.08;2.55;;;6.40;99.90;;;;;;5124819;27;20413;-81
2022/01/05 11:34:04;;;;;;;13.05;2.53;;;6.40;99.90;;;;;;5098102;27;20047;-81
2022/01/05 11:36:30;;;;;;;15.43;2.63;;;6.60;99.90;;;;;;5110735;27;20039;-87
2022/01/05 11:38:55;;;;;;;;;;;6.70;99.90;;;;;;5125868;27;20038;-81
2022/01/05 11:41:22;;;;;;;22.05;2.65;;;6.70;99.90;;;;;;5139732;27;19993;-81
2022/01/05 11:43:48;;;;;;;17.45;2.67;;;6.90;99.90;;;;;;5100961;27;20104;-82
2022/01/05 11:46:14;;;;;;;;;;;7.20;99.90;;;;;;5102084;27;20042;-82
2022/01/05 11:48:40;;;;;;;16.48;2.13;;;7.50;99.90;;;;;;5125675;27;19954;-82
2022/01/05 11:51:06;;;;;;;16.17;3.20;;;7.70;99.90;;;;;;5127162;27;20472;-82
2022/01/05 11:53:33;;;;;;;;;;;7.90;99.90;;;;;;5104526;27;20035;-83
2022/01/05 11:55:59;;;;;;;10.20;2.17;;;8.00;99.90;;;;;;5100014;27;20006;-82
2022/01/05 11:58:30;;;;;;;8.50;1.80;;;8.10;99.90;;;;;;5118300;27;20199;-85
2022/01/05 12:01:21;;;;;;;15.20;2.33;;;8.20;99.90;;;;;;5126366;27;20051;-80
2022/01/05 12:03:50;;;;;;;16.40;2.15;;;8.20;99.90;;;;;;5131593;27;20054;-80
2022/01/05 12:06:17;;;;;;;14.50;2.13;;;8.20;99.90;;;;;;5101068;27;20086;-80
2022/01/05 12:08:44;;;;;;;11.48;2.00;;;8.30;99.90;;;;;;5114315;27;20251;-80
2022/01/05 12:11:33;;;;;;;12.50;2.33;;;8.10;99.90;;;;;;5131154;27;20094;-80
2022/01/05 12:14:03;;;;;;;7.78;1.67;;;7.90;99.90;;;;;;5127479;27;20126;-79
2022/01/05 12:16:49;;;;;;;10.68;2.35;;;8.00;99.90;;;;;;5124085;27;20050;-79
2022/01/05 12:19:15;;;;;;;19.02;2.17;;;7.90;99.90;;;;;;5112355;27;20139;-80
2022/01/05 12:21:50;;;;;;;16.27;2.70;;;7.60;99.90;;;;;;5126324;27;20133;-79
2022/01/05 12:24:17;;;;;;;12.40;2.10;;;7.30;99.90;;;;;;5131485;27;20046;-80
2022/01/05 12:26:45;;;;;;;18.58;2.88;;;7.00;99.90;;;;;;5113917;27;20043;-79
2022/01/05 12:29:11;;;;;;;9.98;1.90;;;6.90;99.90;;;;;;5112623;27;20066;-80
2022/01/05 12:31:59;;;;;;;8.25;2.00;;;6.80;99.90;;;;;;5125735;27;20050;-80
2022/01/05 12:34:57;;;;;;;;;;;6.80;99.90;;;;;;5134738;27;20055;-80
2022/01/05 12:37:44;;;;;;;9.98;1.60;;;7.00;99.90;;;;;;5061418;27;19918;-78
2022/01/05 12:40:46;;;;;;;9.13;1.60;;;7.70;99.90;;;;;;5132085;27;20444;-80
2022/01/05 12:43:15;;;;;;;6.63;1.40;;;8.10;99.90;;;;;;5111459;27;20057;-79
2022/01/05 12:45:59;;;;;;;12.30;2.17;;;8.40;99.90;;;;;;5114662;27;20043;-80
2022/01/05 12:48:31;;;;;;;10.93;1.50;;;8.60;99.90;;;;;;5128253;27;20247;-80
2022/01/05 12:51:18;;;;;;;12.55;1.65;;;8.80;99.90;;;;;;5115814;27;20142;-79
2022/01/05 12:54:10;;;;;;;10.88;1.85;;;8.60;99.90;;;;;;5111754;27;20051;-77
2022/01/05 12:56:42;;;;;;;13.75;1.80;;;8.20;99.90;;;;;;5131672;27;20031;-81
2022/01/05 12:59:29;;;;;;;8.23;2.00;;;8.40;99.90;;;;;;5112494;27;20086;-79
2022/01/05 13:02:27;;;;;;;15.18;2.10;;;8.60;99.90;;;;;;5098077;27;20051;-79
2022/01/05 13:04:57;;;;;;;18.88;2.65;;;8.60;99.90;;;;;;5097963;27;20047;-79